sensor_id;sensor_type;location;lat;lon;timestamp;P1;durP1;ratioP1;P2;durP2;ratioP2
39882;SDS011;55824;52.220;21.040;2022-10-31T00:00:41;5.78;;;4.65;;
39882;SDS011;55824;52.220;21.040;2022-10-31T00:03:07;6.32;;;4.40;;
39882;SDS011;55824;52.220;21.040;2022-10-31T00:05:33;5.15;;;4.30;;
39882;SDS011;55824;52.220;21.040;2022-10-31T00:07:59;7.13;;;5.13;;
39882;SDS011;55824;52.220;21.040;2022-10-31T00:10:25;6.95;;;4.90;;
39882;SDS011;55824;52.220;21.040;2022-10-31T00:12:51;5.68;;;4.45;;
39882;SDS011;55824;52.220;21.040;2022-10-31T00:15:17;6.85;;;4.90;;
39882;SDS011;55824;52.220;21.040;2022-10-31T00:17:43;6.40;;;4.70;;
39882;SDS011;55824;52.220;21.040;2022-10-31T00:20:09;7.07;;;4.75;;
39882;SDS011;55824;52.220;21.040;2022-10-31T00:22:35;6.25;;;4.88;;
39882;SDS011;55824;52.220;21.040;2022-10-31T00:25:01;6.78;;;4.63;;
39882;SDS011;55824;52.220;21.040;2022-10-31T00:27:27;6.03;;;4.68;;
39882;SDS011;55824;52.220;21.040;2022-10-31T00:29:53;6.70;;;4.97;;
39882;SDS011;55824;52.220;21.040;2022-10-31T00:32:19;6.57;;;4.90;;
39882;SDS011;55824;52.220;21.040;2022-10-31T00:34:45;5.80;;;4.50;;
39882;SDS011;55824;52.220;21.040;2022-10-31T00:37:11;6.00;;;4.85;;
39882;SDS011;55824;52.220;21.040;2022-10-31T00:39:37;6.18;;;4.97;;
39882;SDS011;55824;52.220;21.040;2022-10-31T00:42:03;6.00;;;4.65;;
39882;SDS011;55824;52.220;21.040;2022-10-31T00:44:29;6.30;;;4.80;;
39882;SDS011;55824;52.220;21.040;2022-10-31T00:46:55;7.03;;;5.32;;
39882;SDS011;55824;52.220;21.040;2022-10-31T00:49:21;6.13;;;4.90;;
39882;SDS011;55824;52.220;21.040;2022-10-31T00:51:47;5.82;;;4.65;;
39882;SDS011;55824;52.220;21.040;2022-10-31T00:54:13;6.70;;;4.93;;
39882;SDS011;55824;52.220;21.040;2022-10-31T00:56:39;6.82;;;5.30;;
39882;SDS011;55824;52.220;21.040;2022-10-31T00:59:05;6.10;;;4.70;;
39882;SDS011;55824;52.220;21.040;2022-10-31T01:01:31;7.00;;;5.05;;
39882;SDS011;55824;52.220;21.040;2022-10-31T01:03:57;7.30;;;5.38;;
39882;SDS011;55824;52.220;21.040;2022-10-31T01:06:23;8.10;;;5.45;;
39882;SDS011;55824;52.220;21.040;2022-10-31T01:08:49;7.35;;;5.22;;
39882;SDS011;55824;52.220;21.040;2022-10-31T01:11:16;7.85;;;5.65;;
39882;SDS011;55824;52.220;21.040;2022-10-31T01:13:43;7.38;;;6.30;;
39882;SDS011;55824;52.220;21.040;2022-10-31T01:16:16;6.72;;;5.30;;
39882;SDS011;55824;52.220;21.040;2022-10-31T01:18:42;6.88;;;5.50;;
39882;SDS011;55824;52.220;21.040;2022-10-31T01:23:34;6.18;;;5.13;;
39882;SDS011;55824;52.220;21.040;2022-10-31T01:26:17;6.43;;;5.22;;
39882;SDS011;55824;52.220;21.040;2022-10-31T01:28:45;7.10;;;5.72;;
39882;SDS011;55824;52.220;21.040;2022-10-31T01:31:11;7.63;;;5.68;;
39882;SDS011;55824;52.220;21.040;2022-10-31T01:33:37;6.85;;;5.75;;
39882;SDS011;55824;52.220;21.040;2022-10-31T01:36:37;6.90;;;5.55;;
39882;SDS011;55824;52.220;21.040;2022-10-31T01:38:57;7.22;;;6.03;;
39882;SDS011;55824;52.220;21.040;2022-10-31T01:41:25;7.18;;;5.82;;
39882;SDS011;55824;52.220;21.040;2022-10-31T01:43:56;8.27;;;5.93;;
39882;SDS011;55824;52.220;21.040;2022-10-31T01:46:24;8.93;;;6.40;;
39882;SDS011;55824;52.220;21.040;2022-10-31T01:48:51;7.45;;;6.03;;
39882;SDS011;55824;52.220;21.040;2022-10-31T01:51:18;8.48;;;6.15;;
39882;SDS011;55824;52.220;21.040;2022-10-31T01:53:46;7.55;;;5.97;;
39882;SDS011;55824;52.220;21.040;2022-10-31T01:56:12;7.18;;;6.13;;
39882;SDS011;55824;52.220;21.040;2022-10-31T01:58:39;8.45;;;6.15;;
39882;SDS011;55824;52.220;21.040;2022-10-31T02:01:05;7.78;;;6.05;;
39882;SDS011;55824;52.220;21.040;2022-10-31T02:03:31;8.77;;;6.80;;
39882;SDS011;55824;52.220;21.040;2022-10-31T02:05:57;7.60;;;6.38;;
39882;SDS011;55824;52.220;21.040;2022-10-31T02:08:28;7.25;;;6.30;;
39882;SDS011;55824;52.220;21.040;2022-10-31T02:10:58;6.93;;;6.22;;
39882;SDS011;55824;52.220;21.040;2022-10-31T02:13:25;7.75;;;6.20;;
39882;SDS011;55824;52.220;21.040;2022-10-31T02:15:52;8.00;;;6.50;;
39882;SDS011;55824;52.220;21.040;2022-10-31T02:18:18;7.90;;;6.18;;
39882;SDS011;55824;52.220;21.040;2022-10-31T02:20:48;7.10;;;6.28;;
39882;SDS011;55824;52.220;21.040;2022-10-31T02:30:59;8.05;;;7.03;;
39882;SDS011;55824;52.220;21.040;2022-10-31T02:38:26;8.35;;;7.05;;
39882;SDS011;55824;52.220;21.040;2022-10-31T02:44:05;8.85;;;7.00;;
39882;SDS011;55824;52.220;21.040;2022-10-31T02:48:38;8.50;;;6.93;;
39882;SDS011;55824;52.220;21.040;2022-10-31T02:51:04;9.45;;;7.13;;
39882;SDS011;55824;52.220;21.040;2022-10-31T02:53:32;7.90;;;6.97;;
39882;SDS011;55824;52.220;21.040;2022-10-31T02:56:00;8.30;;;7.18;;
39882;SDS011;55824;52.220;21.040;2022-10-31T02:58:28;8.73;;;7.60;;
39882;SDS011;55824;52.220;21.040;2022-10-31T03:03:44;9.60;;;7.38;;
39882;SDS011;55824;52.220;21.040;2022-10-31T03:06:16;9.38;;;7.60;;
39882;SDS011;55824;52.220;21.040;2022-10-31T03:08:47;8.63;;;7.70;;
39882;SDS011;55824;52.220;21.040;2022-10-31T03:11:16;9.55;;;7.32;;
39882;SDS011;55824;52.220;21.040;2022-10-31T03:13:45;8.63;;;7.53;;
39882;SDS011;55824;52.220;21.040;2022-10-31T03:16:22;8.65;;;7.47;;
39882;SDS011;55824;52.220;21.040;2022-10-31T03:18:50;9.18;;;7.72;;
39882;SDS011;55824;52.220;21.040;2022-10-31T03:21:20;9.83;;;7.73;;
39882;SDS011;55824;52.220;21.040;2022-10-31T03:23:46;8.15;;;7.05;;
39882;SDS011;55824;52.220;21.040;2022-10-31T03:26:14;9.45;;;7.82;;
39882;SDS011;55824;52.220;21.040;2022-10-31T03:28:45;9.10;;;7.53;;
39882;SDS011;55824;52.220;21.040;2022-10-31T03:31:12;7.88;;;7.07;;
39882;SDS011;55824;52.220;21.040;2022-10-31T03:33:39;9.48;;;8.38;;
39882;SDS011;55824;52.220;21.040;2022-10-31T03:36:06;8.63;;;7.72;;
39882;SDS011;55824;52.220;21.040;2022-10-31T03:38:34;8.77;;;7.25;;
39882;SDS011;55824;52.220;21.040;2022-10-31T03:41:01;7.65;;;6.80;;
39882;SDS011;55824;52.220;21.040;2022-10-31T03:43:30;9.07;;;8.10;;
39882;SDS011;55824;52.220;21.040;2022-10-31T03:45:58;9.23;;;7.50;;
39882;SDS011;55824;52.220;21.040;2022-10-31T03:48:24;9.13;;;8.13;;
39882;SDS011;55824;52.220;21.040;2022-10-31T03:56:22;9.63;;;8.13;;
39882;SDS011;55824;52.220;21.040;2022-10-31T03:58:56;8.48;;;7.55;;
39882;SDS011;55824;52.220;21.040;2022-10-31T04:01:23;9.68;;;8.07;;
39882;SDS011;55824;52.220;21.040;2022-10-31T04:03:50;7.93;;;7.10;;
39882;SDS011;55824;52.220;21.040;2022-10-31T04:06:16;9.52;;;7.70;;
39882;SDS011;55824;52.220;21.040;2022-10-31T04:08:53;8.35;;;7.13;;
39882;SDS011;55824;52.220;21.040;2022-10-31T04:11:21;9.10;;;7.55;;
39882;SDS011;55824;52.220;21.040;2022-10-31T04:13:48;8.27;;;7.25;;
39882;SDS011;55824;52.220;21.040;2022-10-31T04:16:15;8.88;;;7.97;;
39882;SDS011;55824;52.220;21.040;2022-10-31T04:18:42;9.75;;;7.97;;
39882;SDS011;55824;52.220;21.040;2022-10-31T04:21:08;9.40;;;8.25;;
39882;SDS011;55824;52.220;21.040;2022-10-31T04:23:34;10.98;;;8.25;;
39882;SDS011;55824;52.220;21.040;2022-10-31T04:26:01;9.25;;;7.50;;
39882;SDS011;55824;52.220;21.040;2022-10-31T04:28:27;8.88;;;7.97;;
39882;SDS011;55824;52.220;21.040;2022-10-31T04:30:53;9.18;;;8.10;;
39882;SDS011;55824;52.220;21.040;2022-10-31T04:33:19;8.55;;;7.57;;
39882;SDS011;55824;52.220;21.040;2022-10-31T04:35:45;9.63;;;8.63;;
39882;SDS011;55824;52.220;21.040;2022-10-31T04:38:11;9.15;;;8.18;;
39882;SDS011;55824;52.220;21.040;2022-10-31T04:40:37;9.25;;;8.25;;
39882;SDS011;55824;52.220;21.040;2022-10-31T04:43:03;9.50;;;8.13;;
39882;SDS011;55824;52.220;21.040;2022-10-31T04:45:29;9.27;;;8.35;;
39882;SDS011;55824;52.220;21.040;2022-10-31T04:47:55;10.60;;;8.73;;
39882;SDS011;55824;52.220;21.040;2022-10-31T04:50:21;10.02;;;8.88;;
39882;SDS011;55824;52.220;21.040;2022-10-31T04:52:47;9.25;;;8.25;;
39882;SDS011;55824;52.220;21.040;2022-10-31T04:55:13;8.82;;;7.93;;
39882;SDS011;55824;52.220;21.040;2022-10-31T04:57:43;9.20;;;8.20;;
39882;SDS011;55824;52.220;21.040;2022-10-31T05:00:09;9.75;;;8.75;;
39882;SDS011;55824;52.220;21.040;2022-10-31T05:02:57;10.38;;;8.95;;
39882;SDS011;55824;52.220;21.040;2022-10-31T05:05:31;9.13;;;8.10;;
39882;SDS011;55824;52.220;21.040;2022-10-31T05:07:57;10.27;;;8.45;;
39882;SDS011;55824;52.220;21.040;2022-10-31T05:10:24;10.18;;;8.10;;
39882;SDS011;55824;52.220;21.040;2022-10-31T05:12:51;10.95;;;8.82;;
39882;SDS011;55824;52.220;21.040;2022-10-31T05:15:17;10.38;;;9.27;;
39882;SDS011;55824;52.220;21.040;2022-10-31T05:17:43;10.23;;;9.18;;
39882;SDS011;55824;52.220;21.040;2022-10-31T05:20:10;10.32;;;8.90;;
39882;SDS011;55824;52.220;21.040;2022-10-31T05:22:36;10.85;;;9.18;;
39882;SDS011;55824;52.220;21.040;2022-10-31T05:25:02;10.52;;;9.43;;
39882;SDS011;55824;52.220;21.040;2022-10-31T05:27:28;9.95;;;8.35;;
39882;SDS011;55824;52.220;21.040;2022-10-31T05:29:54;9.82;;;8.80;;
39882;SDS011;55824;52.220;21.040;2022-10-31T05:32:20;10.68;;;8.93;;
39882;SDS011;55824;52.220;21.040;2022-10-31T05:34:46;8.95;;;8.05;;
39882;SDS011;55824;52.220;21.040;2022-10-31T05:37:12;10.27;;;8.80;;
39882;SDS011;55824;52.220;21.040;2022-10-31T05:39:38;9.85;;;8.85;;
39882;SDS011;55824;52.220;21.040;2022-10-31T05:42:04;9.68;;;8.60;;
39882;SDS011;55824;52.220;21.040;2022-10-31T05:44:30;10.82;;;9.27;;
39882;SDS011;55824;52.220;21.040;2022-10-31T05:46:56;10.23;;;9.13;;
39882;SDS011;55824;52.220;21.040;2022-10-31T05:49:22;11.05;;;9.68;;
39882;SDS011;55824;52.220;21.040;2022-10-31T05:51:48;11.20;;;10.00;;
39882;SDS011;55824;52.220;21.040;2022-10-31T05:54:14;11.32;;;10.00;;
39882;SDS011;55824;52.220;21.040;2022-10-31T05:56:40;11.48;;;10.25;;
39882;SDS011;55824;52.220;21.040;2022-10-31T05:59:06;11.02;;;9.93;;
39882;SDS011;55824;52.220;21.040;2022-10-31T06:01:32;11.50;;;10.30;;
39882;SDS011;55824;52.220;21.040;2022-10-31T06:03:58;11.07;;;9.98;;
39882;SDS011;55824;52.220;21.040;2022-10-31T06:06:24;11.77;;;9.98;;
39882;SDS011;55824;52.220;21.040;2022-10-31T06:08:50;11.45;;;10.18;;
39882;SDS011;55824;52.220;21.040;2022-10-31T06:11:16;11.48;;;10.32;;
39882;SDS011;55824;52.220;21.040;2022-10-31T06:13:42;10.98;;;9.65;;
39882;SDS011;55824;52.220;21.040;2022-10-31T06:16:08;11.10;;;10.00;;
39882;SDS011;55824;52.220;21.040;2022-10-31T06:18:34;12.90;;;10.55;;
39882;SDS011;55824;52.220;21.040;2022-10-31T06:21:00;11.60;;;10.35;;
39882;SDS011;55824;52.220;21.040;2022-10-31T06:23:26;12.85;;;10.65;;
39882;SDS011;55824;52.220;21.040;2022-10-31T06:25:52;11.52;;;10.25;;
39882;SDS011;55824;52.220;21.040;2022-10-31T06:28:18;12.02;;;10.75;;
39882;SDS011;55824;52.220;21.040;2022-10-31T06:30:44;12.35;;;10.38;;
39882;SDS011;55824;52.220;21.040;2022-10-31T06:33:10;10.88;;;9.70;;
39882;SDS011;55824;52.220;21.040;2022-10-31T06:35:36;12.13;;;10.48;;
39882;SDS011;55824;52.220;21.040;2022-10-31T06:38:02;11.52;;;10.32;;
39882;SDS011;55824;52.220;21.040;2022-10-31T06:40:28;11.48;;;10.18;;
39882;SDS011;55824;52.220;21.040;2022-10-31T06:42:57;11.02;;;9.93;;
39882;SDS011;55824;52.220;21.040;2022-10-31T06:45:23;11.27;;;10.18;;
39882;SDS011;55824;52.220;21.040;2022-10-31T06:47:50;11.73;;;10.32;;
39882;SDS011;55824;52.220;21.040;2022-10-31T06:50:17;12.00;;;10.80;;
39882;SDS011;55824;52.220;21.040;2022-10-31T06:52:43;11.98;;;10.77;;
39882;SDS011;55824;52.220;21.040;2022-10-31T06:55:09;11.63;;;10.43;;
39882;SDS011;55824;52.220;21.040;2022-10-31T06:57:35;12.25;;;10.95;;
39882;SDS011;55824;52.220;21.040;2022-10-31T07:00:01;12.85;;;10.65;;
39882;SDS011;55824;52.220;21.040;2022-10-31T07:02:27;12.02;;;10.80;;
39882;SDS011;55824;52.220;21.040;2022-10-31T07:04:53;11.90;;;10.70;;
39882;SDS011;55824;52.220;21.040;2022-10-31T07:07:19;12.07;;;10.75;;
39882;SDS011;55824;52.220;21.040;2022-10-31T07:09:46;13.45;;;11.38;;
39882;SDS011;55824;52.220;21.040;2022-10-31T07:12:12;11.75;;;10.13;;
39882;SDS011;55824;52.220;21.040;2022-10-31T07:14:38;14.27;;;11.05;;
39882;SDS011;55824;52.220;21.040;2022-10-31T07:17:04;12.90;;;11.50;;
39882;SDS011;55824;52.220;21.040;2022-10-31T07:19:30;12.77;;;11.27;;
39882;SDS011;55824;52.220;21.040;2022-10-31T07:21:56;12.20;;;10.90;;
39882;SDS011;55824;52.220;21.040;2022-10-31T07:24:22;11.75;;;10.43;;
39882;SDS011;55824;52.220;21.040;2022-10-31T07:26:48;12.57;;;11.10;;
39882;SDS011;55824;52.220;21.040;2022-10-31T07:29:14;11.82;;;10.57;;
39882;SDS011;55824;52.220;21.040;2022-10-31T07:31:40;11.32;;;9.82;;
39882;SDS011;55824;52.220;21.040;2022-10-31T07:34:06;12.20;;;10.85;;
39882;SDS011;55824;52.220;21.040;2022-10-31T07:36:32;12.25;;;10.27;;
39882;SDS011;55824;52.220;21.040;2022-10-31T07:38:58;11.45;;;10.18;;
39882;SDS011;55824;52.220;21.040;2022-10-31T07:41:24;12.85;;;10.45;;
39882;SDS011;55824;52.220;21.040;2022-10-31T07:43:50;11.95;;;9.90;;
39882;SDS011;55824;52.220;21.040;2022-10-31T07:46:16;13.77;;;10.95;;
39882;SDS011;55824;52.220;21.040;2022-10-31T07:48:42;12.43;;;10.45;;
39882;SDS011;55824;52.220;21.040;2022-10-31T07:51:08;11.82;;;10.63;;
39882;SDS011;55824;52.220;21.040;2022-10-31T07:53:34;11.60;;;10.25;;
39882;SDS011;55824;52.220;21.040;2022-10-31T07:56:00;12.75;;;10.50;;
39882;SDS011;55824;52.220;21.040;2022-10-31T07:58:26;11.55;;;10.15;;
39882;SDS011;55824;52.220;21.040;2022-10-31T08:00:52;13.93;;;10.65;;
39882;SDS011;55824;52.220;21.040;2022-10-31T08:03:18;12.45;;;11.15;;
39882;SDS011;55824;52.220;21.040;2022-10-31T08:05:45;11.98;;;9.85;;
39882;SDS011;55824;52.220;21.040;2022-10-31T08:08:11;11.80;;;10.48;;
39882;SDS011;55824;52.220;21.040;2022-10-31T08:10:38;13.00;;;10.52;;
39882;SDS011;55824;52.220;21.040;2022-10-31T08:13:06;12.27;;;10.05;;
39882;SDS011;55824;52.220;21.040;2022-10-31T08:15:32;10.68;;;9.50;;
39882;SDS011;55824;52.220;21.040;2022-10-31T08:18:02;11.27;;;9.52;;
39882;SDS011;55824;52.220;21.040;2022-10-31T08:20:28;13.02;;;10.80;;
39882;SDS011;55824;52.220;21.040;2022-10-31T08:23:01;12.25;;;9.75;;
39882;SDS011;55824;52.220;21.040;2022-10-31T08:25:28;11.23;;;9.88;;
39882;SDS011;55824;52.220;21.040;2022-10-31T08:27:54;14.43;;;10.40;;
39882;SDS011;55824;52.220;21.040;2022-10-31T08:30:21;14.48;;;10.27;;
39882;SDS011;55824;52.220;21.040;2022-10-31T08:32:47;14.23;;;10.93;;
39882;SDS011;55824;52.220;21.040;2022-10-31T08:35:22;14.27;;;10.52;;
39882;SDS011;55824;52.220;21.040;2022-10-31T08:37:54;12.20;;;9.68;;
39882;SDS011;55824;52.220;21.040;2022-10-31T08:40:21;13.20;;;9.80;;
39882;SDS011;55824;52.220;21.040;2022-10-31T08:42:47;13.77;;;10.38;;
39882;SDS011;55824;52.220;21.040;2022-10-31T08:45:13;11.70;;;9.70;;
39882;SDS011;55824;52.220;21.040;2022-10-31T08:47:39;11.55;;;9.48;;
39882;SDS011;55824;52.220;21.040;2022-10-31T08:50:05;12.32;;;9.55;;
39882;SDS011;55824;52.220;21.040;2022-10-31T08:52:31;12.20;;;9.90;;
39882;SDS011;55824;52.220;21.040;2022-10-31T08:54:57;10.55;;;9.20;;
39882;SDS011;55824;52.220;21.040;2022-10-31T08:57:23;11.20;;;8.85;;
39882;SDS011;55824;52.220;21.040;2022-10-31T08:59:49;10.73;;;9.13;;
39882;SDS011;55824;52.220;21.040;2022-10-31T09:02:15;10.20;;;8.45;;
39882;SDS011;55824;52.220;21.040;2022-10-31T09:04:41;11.40;;;9.18;;
39882;SDS011;55824;52.220;21.040;2022-10-31T09:07:07;10.88;;;9.40;;
39882;SDS011;55824;52.220;21.040;2022-10-31T09:09:33;11.95;;;9.18;;
39882;SDS011;55824;52.220;21.040;2022-10-31T09:11:59;12.05;;;9.23;;
39882;SDS011;55824;52.220;21.040;2022-10-31T09:14:25;9.15;;;8.20;;
39882;SDS011;55824;52.220;21.040;2022-10-31T09:16:51;10.25;;;8.75;;
39882;SDS011;55824;52.220;21.040;2022-10-31T09:19:17;11.55;;;9.50;;
39882;SDS011;55824;52.220;21.040;2022-10-31T09:21:43;9.55;;;8.55;;
39882;SDS011;55824;52.220;21.040;2022-10-31T09:24:09;10.68;;;8.95;;
39882;SDS011;55824;52.220;21.040;2022-10-31T09:26:35;10.18;;;8.38;;
39882;SDS011;55824;52.220;21.040;2022-10-31T09:29:01;10.93;;;9.23;;
39882;SDS011;55824;52.220;21.040;2022-10-31T09:31:27;10.27;;;8.55;;
39882;SDS011;55824;52.220;21.040;2022-10-31T09:33:53;10.73;;;8.55;;
39882;SDS011;55824;52.220;21.040;2022-10-31T09:36:19;10.75;;;8.63;;
39882;SDS011;55824;52.220;21.040;2022-10-31T09:38:45;10.30;;;7.93;;
39882;SDS011;55824;52.220;21.040;2022-10-31T09:51:49;9.13;;;8.00;;
39882;SDS011;55824;52.220;21.040;2022-10-31T09:54:21;10.35;;;8.93;;
39882;SDS011;55824;52.220;21.040;2022-10-31T09:56:51;10.57;;;8.32;;
39882;SDS011;55824;52.220;21.040;2022-10-31T09:59:36;9.07;;;7.82;;
39882;SDS011;55824;52.220;21.040;2022-10-31T10:02:11;9.85;;;8.05;;
39882;SDS011;55824;52.220;21.040;2022-10-31T10:04:43;9.45;;;8.23;;
39882;SDS011;55824;52.220;21.040;2022-10-31T10:07:13;10.32;;;8.02;;
39882;SDS011;55824;52.220;21.040;2022-10-31T10:09:39;9.40;;;8.40;;
39882;SDS011;55824;52.220;21.040;2022-10-31T10:14:34;9.15;;;7.78;;
39882;SDS011;55824;52.220;21.040;2022-10-31T10:19:45;9.37;;;8.20;;
39882;SDS011;55824;52.220;21.040;2022-10-31T10:24:48;10.05;;;8.50;;
39882;SDS011;55824;52.220;21.040;2022-10-31T10:29:44;8.98;;;8.05;;
39882;SDS011;55824;52.220;21.040;2022-10-31T10:32:24;9.50;;;8.50;;
39882;SDS011;55824;52.220;21.040;2022-10-31T10:34:51;9.85;;;7.30;;
39882;SDS011;55824;52.220;21.040;2022-10-31T10:37:29;9.32;;;8.05;;
39882;SDS011;55824;52.220;21.040;2022-10-31T10:39:59;8.93;;;8.02;;
39882;SDS011;55824;52.220;21.040;2022-10-31T10:42:26;10.25;;;7.35;;
39882;SDS011;55824;52.220;21.040;2022-10-31T10:45:18;10.50;;;8.05;;
39882;SDS011;55824;52.220;21.040;2022-10-31T10:50:35;9.30;;;7.93;;
39882;SDS011;55824;52.220;21.040;2022-10-31T10:53:08;9.50;;;7.93;;
39882;SDS011;55824;52.220;21.040;2022-10-31T10:55:53;8.93;;;7.80;;
39882;SDS011;55824;52.220;21.040;2022-10-31T10:58:22;8.68;;;7.53;;
39882;SDS011;55824;52.220;21.040;2022-10-31T11:00:48;8.82;;;7.43;;
39882;SDS011;55824;52.220;21.040;2022-10-31T11:03:16;8.27;;;7.03;;
39882;SDS011;55824;52.220;21.040;2022-10-31T11:05:44;9.48;;;8.00;;
39882;SDS011;55824;52.220;21.040;2022-10-31T11:08:23;7.88;;;7.00;;
39882;SDS011;55824;52.220;21.040;2022-10-31T11:11:03;8.65;;;7.25;;
39882;SDS011;55824;52.220;21.040;2022-10-31T11:13:30;8.70;;;6.93;;
39882;SDS011;55824;52.220;21.040;2022-10-31T11:16:04;8.57;;;7.25;;
39882;SDS011;55824;52.220;21.040;2022-10-31T11:18:32;9.23;;;7.13;;
39882;SDS011;55824;52.220;21.040;2022-10-31T11:21:00;8.90;;;7.55;;
39882;SDS011;55824;52.220;21.040;2022-10-31T11:23:28;8.82;;;7.47;;
39882;SDS011;55824;52.220;21.040;2022-10-31T11:28:20;8.82;;;6.90;;
39882;SDS011;55824;52.220;21.040;2022-10-31T11:30:50;8.52;;;6.63;;
39882;SDS011;55824;52.220;21.040;2022-10-31T11:33:39;9.90;;;7.20;;
39882;SDS011;55824;52.220;21.040;2022-10-31T11:36:13;8.05;;;7.10;;
39882;SDS011;55824;52.220;21.040;2022-10-31T11:38:40;8.35;;;6.07;;
39882;SDS011;55824;52.220;21.040;2022-10-31T11:41:17;7.72;;;6.90;;
39882;SDS011;55824;52.220;21.040;2022-10-31T11:43:48;7.07;;;6.03;;
39882;SDS011;55824;52.220;21.040;2022-10-31T11:46:17;7.40;;;6.60;;
39882;SDS011;55824;52.220;21.040;2022-10-31T11:48:49;8.48;;;6.70;;
39882;SDS011;55824;52.220;21.040;2022-10-31T11:51:20;8.38;;;6.35;;
39882;SDS011;55824;52.220;21.040;2022-10-31T11:53:50;7.60;;;6.72;;
39882;SDS011;55824;52.220;21.040;2022-10-31T11:56:17;7.65;;;6.10;;
39882;SDS011;55824;52.220;21.040;2022-10-31T11:58:43;8.98;;;7.03;;
39882;SDS011;55824;52.220;21.040;2022-10-31T12:01:25;8.23;;;6.78;;
39882;SDS011;55824;52.220;21.040;2022-10-31T12:03:54;8.13;;;6.53;;
39882;SDS011;55824;52.220;21.040;2022-10-31T12:06:25;7.45;;;6.50;;
39882;SDS011;55824;52.220;21.040;2022-10-31T12:08:54;7.75;;;6.40;;
39882;SDS011;55824;52.220;21.040;2022-10-31T12:19:18;7.53;;;6.35;;
39882;SDS011;55824;52.220;21.040;2022-10-31T12:29:44;7.00;;;6.10;;
39882;SDS011;55824;52.220;21.040;2022-10-31T12:32:15;7.72;;;6.25;;
39882;SDS011;55824;52.220;21.040;2022-10-31T12:45:14;7.38;;;6.15;;
39882;SDS011;55824;52.220;21.040;2022-10-31T12:47:53;7.20;;;6.10;;
39882;SDS011;55824;52.220;21.040;2022-10-31T12:53:24;6.82;;;6.13;;
39882;SDS011;55824;52.220;21.040;2022-10-31T12:56:12;7.65;;;6.85;;
39882;SDS011;55824;52.220;21.040;2022-10-31T13:02:12;6.70;;;5.67;;
39882;SDS011;55824;52.220;21.040;2022-10-31T13:04:11;9.50;;;6.28;;
39882;SDS011;55824;52.220;21.040;2022-10-31T13:06:39;7.47;;;6.25;;
39882;SDS011;55824;52.220;21.040;2022-10-31T13:09:07;8.10;;;6.05;;
39882;SDS011;55824;52.220;21.040;2022-10-31T13:16:37;6.90;;;5.90;;
39882;SDS011;55824;52.220;21.040;2022-10-31T13:21:47;6.45;;;5.80;;
39882;SDS011;55824;52.220;21.040;2022-10-31T13:24:18;7.78;;;6.40;;
39882;SDS011;55824;52.220;21.040;2022-10-31T13:31:43;7.57;;;6.10;;
39882;SDS011;55824;52.220;21.040;2022-10-31T13:36:59;8.00;;;6.32;;
39882;SDS011;55824;52.220;21.040;2022-10-31T13:39:33;7.20;;;5.70;;
39882;SDS011;55824;52.220;21.040;2022-10-31T13:42:11;7.90;;;6.00;;
39882;SDS011;55824;52.220;21.040;2022-10-31T13:44:38;9.35;;;6.97;;
39882;SDS011;55824;52.220;21.040;2022-10-31T13:47:20;7.82;;;5.93;;
39882;SDS011;55824;52.220;21.040;2022-10-31T13:49:46;7.30;;;6.13;;
39882;SDS011;55824;52.220;21.040;2022-10-31T13:57:12;7.05;;;6.35;;
39882;SDS011;55824;52.220;21.040;2022-10-31T13:59:45;7.07;;;6.22;;
39882;SDS011;55824;52.220;21.040;2022-10-31T14:02:13;7.35;;;5.57;;
39882;SDS011;55824;52.220;21.040;2022-10-31T14:04:44;6.63;;;5.93;;
39882;SDS011;55824;52.220;21.040;2022-10-31T14:07:13;7.85;;;6.43;;
39882;SDS011;55824;52.220;21.040;2022-10-31T14:14:52;9.38;;;6.45;;
39882;SDS011;55824;52.220;21.040;2022-10-31T14:17:21;8.88;;;6.68;;
39882;SDS011;55824;52.220;21.040;2022-10-31T14:19:58;8.18;;;6.63;;
39882;SDS011;55824;52.220;21.040;2022-10-31T14:22:28;7.30;;;6.45;;
39882;SDS011;55824;52.220;21.040;2022-10-31T14:24:54;9.63;;;7.15;;
39882;SDS011;55824;52.220;21.040;2022-10-31T14:29:50;7.35;;;6.57;;
39882;SDS011;55824;52.220;21.040;2022-10-31T14:32:19;8.32;;;7.22;;
39882;SDS011;55824;52.220;21.040;2022-10-31T14:44:47;7.88;;;7.07;;
39882;SDS011;55824;52.220;21.040;2022-10-31T14:47:32;8.45;;;7.15;;
39882;SDS011;55824;52.220;21.040;2022-10-31T14:52:30;8.57;;;7.67;;
39882;SDS011;55824;52.220;21.040;2022-10-31T14:54:57;8.05;;;7.03;;
39882;SDS011;55824;52.220;21.040;2022-10-31T14:57:26;8.65;;;7.10;;
39882;SDS011;55824;52.220;21.040;2022-10-31T14:59:58;10.53;;;7.27;;
39882;SDS011;55824;52.220;21.040;2022-10-31T15:02:27;8.60;;;7.25;;
39882;SDS011;55824;52.220;21.040;2022-10-31T15:04:53;8.55;;;7.60;;
39882;SDS011;55824;52.220;21.040;2022-10-31T15:07:24;9.80;;;8.32;;
39882;SDS011;55824;52.220;21.040;2022-10-31T15:09:58;9.25;;;7.55;;
39882;SDS011;55824;52.220;21.040;2022-10-31T15:12:28;10.15;;;8.30;;
39882;SDS011;55824;52.220;21.040;2022-10-31T15:14:54;9.02;;;7.60;;
39882;SDS011;55824;52.220;21.040;2022-10-31T15:17:21;9.48;;;7.63;;
39882;SDS011;55824;52.220;21.040;2022-10-31T15:19:48;8.38;;;7.47;;
39882;SDS011;55824;52.220;21.040;2022-10-31T15:22:15;9.20;;;8.02;;
39882;SDS011;55824;52.220;21.040;2022-10-31T15:24:42;8.90;;;7.43;;
39882;SDS011;55824;52.220;21.040;2022-10-31T15:27:12;9.02;;;8.13;;
39882;SDS011;55824;52.220;21.040;2022-10-31T15:29:47;8.80;;;7.35;;
39882;SDS011;55824;52.220;21.040;2022-10-31T15:32:20;9.35;;;7.22;;
39882;SDS011;55824;52.220;21.040;2022-10-31T15:34:48;9.63;;;7.82;;
39882;SDS011;55824;52.220;21.040;2022-10-31T15:37:15;7.68;;;6.82;;
39882;SDS011;55824;52.220;21.040;2022-10-31T15:39:42;8.60;;;7.35;;
39882;SDS011;55824;52.220;21.040;2022-10-31T15:44:40;8.45;;;7.55;;
39882;SDS011;55824;52.220;21.040;2022-10-31T15:47:18;8.77;;;7.85;;
39882;SDS011;55824;52.220;21.040;2022-10-31T15:49:54;9.10;;;8.10;;
39882;SDS011;55824;52.220;21.040;2022-10-31T15:54:57;9.27;;;7.90;;
39882;SDS011;55824;52.220;21.040;2022-10-31T15:57:24;9.27;;;8.27;;
39882;SDS011;55824;52.220;21.040;2022-10-31T15:59:51;9.02;;;8.13;;
39882;SDS011;55824;52.220;21.040;2022-10-31T16:02:24;8.52;;;7.70;;
39882;SDS011;55824;52.220;21.040;2022-10-31T16:04:54;9.02;;;7.70;;
39882;SDS011;55824;52.220;21.040;2022-10-31T16:07:22;8.23;;;7.40;;
39882;SDS011;55824;52.220;21.040;2022-10-31T16:09:49;7.97;;;6.88;;
39882;SDS011;55824;52.220;21.040;2022-10-31T16:12:15;9.48;;;7.32;;
39882;SDS011;55824;52.220;21.040;2022-10-31T16:14:41;8.95;;;7.38;;
39882;SDS011;55824;52.220;21.040;2022-10-31T16:17:11;9.00;;;7.65;;
39882;SDS011;55824;52.220;21.040;2022-10-31T16:19:42;8.73;;;7.70;;
39882;SDS011;55824;52.220;21.040;2022-10-31T16:22:12;9.07;;;7.93;;
39882;SDS011;55824;52.220;21.040;2022-10-31T16:24:46;9.43;;;7.82;;
39882;SDS011;55824;52.220;21.040;2022-10-31T16:27:22;9.48;;;8.18;;
39882;SDS011;55824;52.220;21.040;2022-10-31T16:29:52;9.23;;;8.23;;
39882;SDS011;55824;52.220;21.040;2022-10-31T16:32:32;9.73;;;7.53;;
39882;SDS011;55824;52.220;21.040;2022-10-31T16:34:59;9.38;;;7.55;;
39882;SDS011;55824;52.220;21.040;2022-10-31T16:37:25;9.95;;;8.18;;
39882;SDS011;55824;52.220;21.040;2022-10-31T16:39:51;9.63;;;8.30;;
39882;SDS011;55824;52.220;21.040;2022-10-31T16:42:17;9.55;;;8.00;;
39882;SDS011;55824;52.220;21.040;2022-10-31T16:44:44;9.90;;;8.68;;
39882;SDS011;55824;52.220;21.040;2022-10-31T16:47:14;10.68;;;8.95;;